Hauptseite
METAR-TAF:

METAR-TAF

Flughäfen :

Militärflugplatz Istrana

Treviso, Italien

Breite: 45-41N, Länge: 012-06E, Höhe: 45 m

Beobachtung

Neuester Wetterbericht von vor 34 Minuten, um 20:55 UTC
Wind 3 kt aus Nord
Temperatur 5°C
Luftfeuchtigkeit 87%
Luftdruck 1015 hPa
Sichtweite 10 km oder mehr
keine Wolken unter 1500 m und keine Kumulonimbus oder Gewitterwolken

METAR: LIPS 182055Z 36003KT CAVOK 05/03 Q1015 RMK SKC VIS MIN 9999 WIND THR26 30002KT WIND THR08 33003KT BLU

Zeit: 22:29 (21:29 UTC)

Prognose

Neuester Wetterbericht von vor 1 Stunde und 29 Minuten, um 20:00 UTC
Gültige Prognose vom 18 um 21 UTC bis 19 um 06 UTC
Wind 4 kt aus unterschiedlichen Richtungen
Sichtweite 10 km oder mehr
Aufgelockert bewölkt in der Höhe von 5000 ft

TAF: LIPS 182000Z 1821/1906 VRB04KT 9999 SCT050

Wetterbeobachtungen und Prognosen von mehr als 4000 Flughäfen (METAR und TAF Bericht).

Die verfügbaren Stationen werden durch gelbe und rote Markierungen auf der Karte dargestellt.

Führen Sie die Maus auf sie, um den Namen der Station zu sehen.

Darauf klicken, um die Beobachtung von Wetterbeobachtungen und Prognosen zu sehen.

Um die Karte zu ändern : klicken Sie auf den grünen Tasten mit einem schwarzen Kreuz Zum Vergrößern, auf den grünen Button mit einem Gedankenstrich zu verkleinern, oder auf die grünen Pfeile für benachbarte Karten.


METAR-TAF: